sensor_id;sensor_type;location;lat;lon;timestamp;P1;durP1;ratioP1;P2;durP2;ratioP2
29218;SDS011;16421;50.202;7.852;2022-09-13T00:02:25;2.20;;;1.10;;
29218;SDS011;16421;50.202;7.852;2022-09-13T00:07:28;0.95;;;0.73;;
29218;SDS011;16421;50.202;7.852;2022-09-13T00:12:31;1.02;;;0.90;;
29218;SDS011;16421;50.202;7.852;2022-09-13T00:17:36;1.33;;;0.90;;
29218;SDS011;16421;50.202;7.852;2022-09-13T00:22:39;2.15;;;1.10;;
29218;SDS011;16421;50.202;7.852;2022-09-13T00:27:43;2.05;;;1.05;;
29218;SDS011;16421;50.202;7.852;2022-09-13T00:32:48;0.82;;;0.80;;
29218;SDS011;16421;50.202;7.852;2022-09-13T00:37:51;1.33;;;0.85;;
29218;SDS011;16421;50.202;7.852;2022-09-13T00:42:54;1.10;;;0.90;;
29218;SDS011;16421;50.202;7.852;2022-09-13T00:47:59;1.55;;;0.90;;
29218;SDS011;16421;50.202;7.852;2022-09-13T00:53:07;3.88;;;1.10;;
29218;SDS011;16421;50.202;7.852;2022-09-13T00:58:14;1.52;;;0.73;;
29218;SDS011;16421;50.202;7.852;2022-09-13T01:03:23;0.98;;;0.88;;
29218;SDS011;16421;50.202;7.852;2022-09-13T01:08:29;1.13;;;1.00;;
29218;SDS011;16421;50.202;7.852;2022-09-13T01:13:34;0.75;;;0.75;;
29218;SDS011;16421;50.202;7.852;2022-09-13T01:18:39;0.95;;;0.95;;
29218;SDS011;16421;50.202;7.852;2022-09-13T01:23:59;2.57;;;0.80;;
29218;SDS011;16421;50.202;7.852;2022-09-13T01:29:24;2.63;;;0.98;;
29218;SDS011;16421;50.202;7.852;2022-09-13T01:34:56;1.88;;;0.90;;
29218;SDS011;16421;50.202;7.852;2022-09-13T01:40:10;2.20;;;0.95;;
29218;SDS011;16421;50.202;7.852;2022-09-13T01:45:21;1.30;;;1.10;;
29218;SDS011;16421;50.202;7.852;2022-09-13T01:50:35;1.17;;;1.08;;
29218;SDS011;16421;50.202;7.852;2022-09-13T01:55:45;0.80;;;0.77;;
29218;SDS011;16421;50.202;7.852;2022-09-13T02:00:53;3.53;;;1.30;;
29218;SDS011;16421;50.202;7.852;2022-09-13T02:06:05;0.90;;;0.77;;
29218;SDS011;16421;50.202;7.852;2022-09-13T02:11:13;0.93;;;0.82;;
29218;SDS011;16421;50.202;7.852;2022-09-13T02:16:20;1.00;;;0.95;;
29218;SDS011;16421;50.202;7.852;2022-09-13T02:21:31;0.68;;;0.68;;
29218;SDS011;16421;50.202;7.852;2022-09-13T02:26:39;2.95;;;1.05;;
29218;SDS011;16421;50.202;7.852;2022-09-13T02:31:46;1.25;;;1.00;;
29218;SDS011;16421;50.202;7.852;2022-09-13T02:36:58;0.70;;;0.70;;
29218;SDS011;16421;50.202;7.852;2022-09-13T02:42:05;1.40;;;0.90;;
29218;SDS011;16421;50.202;7.852;2022-09-13T02:47:18;0.80;;;0.80;;
29218;SDS011;16421;50.202;7.852;2022-09-13T02:52:35;0.80;;;0.70;;
29218;SDS011;16421;50.202;7.852;2022-09-13T02:57:58;1.00;;;1.00;;
29218;SDS011;16421;50.202;7.852;2022-09-13T03:03:04;2.17;;;0.87;;
29218;SDS011;16421;50.202;7.852;2022-09-13T03:08:12;1.13;;;1.02;;
29218;SDS011;16421;50.202;7.852;2022-09-13T03:13:22;1.25;;;1.02;;
29218;SDS011;16421;50.202;7.852;2022-09-13T03:18:45;1.85;;;0.80;;
29218;SDS011;16421;50.202;7.852;2022-09-13T03:23:56;0.85;;;0.85;;
29218;SDS011;16421;50.202;7.852;2022-09-13T03:29:18;1.98;;;1.00;;
29218;SDS011;16421;50.202;7.852;2022-09-13T03:34:33;2.63;;;0.80;;
29218;SDS011;16421;50.202;7.852;2022-09-13T03:39:47;3.30;;;1.20;;
29218;SDS011;16421;50.202;7.852;2022-09-13T03:44:54;0.75;;;0.63;;
29218;SDS011;16421;50.202;7.852;2022-09-13T03:49:59;2.30;;;0.95;;
29218;SDS011;16421;50.202;7.852;2022-09-13T03:55:04;1.10;;;0.90;;
29218;SDS011;16421;50.202;7.852;2022-09-13T04:00:08;1.23;;;1.00;;
29218;SDS011;16421;50.202;7.852;2022-09-13T04:05:14;1.40;;;1.00;;
29218;SDS011;16421;50.202;7.852;2022-09-13T04:10:19;0.57;;;0.52;;
29218;SDS011;16421;50.202;7.852;2022-09-13T04:15:24;1.00;;;0.90;;
29218;SDS011;16421;50.202;7.852;2022-09-13T04:20:28;1.45;;;0.90;;
29218;SDS011;16421;50.202;7.852;2022-09-13T04:25:32;1.42;;;0.98;;
29218;SDS011;16421;50.202;7.852;2022-09-13T04:30:42;2.85;;;1.10;;
29218;SDS011;16421;50.202;7.852;2022-09-13T04:35:50;1.40;;;1.30;;
29218;SDS011;16421;50.202;7.852;2022-09-13T04:40:57;1.05;;;0.95;;
29218;SDS011;16421;50.202;7.852;2022-09-13T04:46:01;1.45;;;0.75;;
29218;SDS011;16421;50.202;7.852;2022-09-13T04:51:04;1.45;;;0.90;;
29218;SDS011;16421;50.202;7.852;2022-09-13T04:56:09;1.92;;;1.30;;
29218;SDS011;16421;50.202;7.852;2022-09-13T05:01:15;2.13;;;0.80;;
29218;SDS011;16421;50.202;7.852;2022-09-13T05:06:21;5.28;;;1.38;;
29218;SDS011;16421;50.202;7.852;2022-09-13T05:11:26;2.87;;;1.17;;
29218;SDS011;16421;50.202;7.852;2022-09-13T05:16:31;1.38;;;1.02;;
29218;SDS011;16421;50.202;7.852;2022-09-13T05:21:37;0.90;;;0.90;;
29218;SDS011;16421;50.202;7.852;2022-09-13T05:26:41;1.40;;;0.80;;
29218;SDS011;16421;50.202;7.852;2022-09-13T05:31:45;1.52;;;1.00;;
29218;SDS011;16421;50.202;7.852;2022-09-13T05:36:48;2.92;;;0.80;;
29218;SDS011;16421;50.202;7.852;2022-09-13T05:41:55;1.13;;;1.00;;
29218;SDS011;16421;50.202;7.852;2022-09-13T05:46:59;1.95;;;1.00;;
29218;SDS011;16421;50.202;7.852;2022-09-13T05:52:02;1.73;;;1.25;;
29218;SDS011;16421;50.202;7.852;2022-09-13T05:57:07;1.00;;;0.90;;
29218;SDS011;16421;50.202;7.852;2022-09-13T06:02:13;0.90;;;0.85;;
29218;SDS011;16421;50.202;7.852;2022-09-13T06:07:16;3.15;;;0.90;;
29218;SDS011;16421;50.202;7.852;2022-09-13T06:12:21;3.15;;;1.33;;
29218;SDS011;16421;50.202;7.852;2022-09-13T06:17:24;3.97;;;1.25;;
29218;SDS011;16421;50.202;7.852;2022-09-13T06:22:28;6.28;;;1.30;;
29218;SDS011;16421;50.202;7.852;2022-09-13T06:27:35;4.90;;;1.17;;
29218;SDS011;16421;50.202;7.852;2022-09-13T06:32:38;1.27;;;0.88;;
29218;SDS011;16421;50.202;7.852;2022-09-13T06:37:42;1.63;;;1.10;;
29218;SDS011;16421;50.202;7.852;2022-09-13T06:42:47;2.58;;;1.13;;
29218;SDS011;16421;50.202;7.852;2022-09-13T06:47:52;1.40;;;1.17;;
29218;SDS011;16421;50.202;7.852;2022-09-13T06:52:56;1.80;;;1.03;;
29218;SDS011;16421;50.202;7.852;2022-09-13T06:58:01;2.13;;;0.75;;
29218;SDS011;16421;50.202;7.852;2022-09-13T07:03:04;1.10;;;0.80;;
29218;SDS011;16421;50.202;7.852;2022-09-13T07:08:08;0.88;;;0.88;;
29218;SDS011;16421;50.202;7.852;2022-09-13T07:13:12;2.00;;;0.95;;
29218;SDS011;16421;50.202;7.852;2022-09-13T07:18:16;1.10;;;1.00;;
29218;SDS011;16421;50.202;7.852;2022-09-13T07:23:19;0.90;;;0.77;;
29218;SDS011;16421;50.202;7.852;2022-09-13T07:28:24;2.95;;;0.68;;
29218;SDS011;16421;50.202;7.852;2022-09-13T07:33:30;0.90;;;0.70;;
29218;SDS011;16421;50.202;7.852;2022-09-13T07:38:34;0.85;;;0.80;;
29218;SDS011;16421;50.202;7.852;2022-09-13T07:43:40;0.90;;;0.68;;
29218;SDS011;16421;50.202;7.852;2022-09-13T07:48:46;0.88;;;0.68;;
29218;SDS011;16421;50.202;7.852;2022-09-13T07:53:51;0.98;;;0.80;;
29218;SDS011;16421;50.202;7.852;2022-09-13T07:58:59;1.02;;;0.90;;
29218;SDS011;16421;50.202;7.852;2022-09-13T08:04:05;1.17;;;0.95;;
29218;SDS011;16421;50.202;7.852;2022-09-13T08:09:10;3.33;;;0.80;;
29218;SDS011;16421;50.202;7.852;2022-09-13T08:14:16;0.63;;;0.63;;
29218;SDS011;16421;50.202;7.852;2022-09-13T08:19:20;1.10;;;0.65;;
29218;SDS011;16421;50.202;7.852;2022-09-13T08:24:24;0.63;;;0.57;;
29218;SDS011;16421;50.202;7.852;2022-09-13T08:29:30;0.90;;;0.55;;
29218;SDS011;16421;50.202;7.852;2022-09-13T08:34:33;0.60;;;0.60;;
29218;SDS011;16421;50.202;7.852;2022-09-13T08:39:36;2.95;;;0.70;;
29218;SDS011;16421;50.202;7.852;2022-09-13T08:44:43;0.65;;;0.52;;
29218;SDS011;16421;50.202;7.852;2022-09-13T08:49:59;1.23;;;0.80;;
29218;SDS011;16421;50.202;7.852;2022-09-13T08:55:14;1.25;;;0.52;;
29218;SDS011;16421;50.202;7.852;2022-09-13T09:00:28;1.38;;;0.50;;
29218;SDS011;16421;50.202;7.852;2022-09-13T09:05:44;0.60;;;0.60;;
29218;SDS011;16421;50.202;7.852;2022-09-13T09:10:50;0.47;;;0.47;;
29218;SDS011;16421;50.202;7.852;2022-09-13T09:15:58;1.52;;;0.60;;
29218;SDS011;16421;50.202;7.852;2022-09-13T09:21:05;1.10;;;0.57;;
29218;SDS011;16421;50.202;7.852;2022-09-13T09:26:18;0.50;;;0.50;;
29218;SDS011;16421;50.202;7.852;2022-09-13T09:31:26;0.60;;;0.40;;
29218;SDS011;16421;50.202;7.852;2022-09-13T09:36:40;0.52;;;0.52;;
29218;SDS011;16421;50.202;7.852;2022-09-13T09:41:47;0.70;;;0.57;;
29218;SDS011;16421;50.202;7.852;2022-09-13T09:46:54;0.85;;;0.68;;
29218;SDS011;16421;50.202;7.852;2022-09-13T09:52:01;0.50;;;0.50;;
29218;SDS011;16421;50.202;7.852;2022-09-13T09:57:07;0.57;;;0.57;;
29218;SDS011;16421;50.202;7.852;2022-09-13T10:02:16;0.70;;;0.50;;
29218;SDS011;16421;50.202;7.852;2022-09-13T10:07:26;1.08;;;0.50;;
29218;SDS011;16421;50.202;7.852;2022-09-13T10:12:33;0.65;;;0.60;;
29218;SDS011;16421;50.202;7.852;2022-09-13T10:17:40;0.60;;;0.50;;
29218;SDS011;16421;50.202;7.852;2022-09-13T10:22:44;1.65;;;0.73;;
29218;SDS011;16421;50.202;7.852;2022-09-13T10:28:09;1.77;;;0.57;;
29218;SDS011;16421;50.202;7.852;2022-09-13T10:33:23;0.88;;;0.60;;
29218;SDS011;16421;50.202;7.852;2022-09-13T10:38:33;0.45;;;0.43;;
29218;SDS011;16421;50.202;7.852;2022-09-13T10:43:41;0.55;;;0.55;;
29218;SDS011;16421;50.202;7.852;2022-09-13T10:48:46;0.70;;;0.30;;
29218;SDS011;16421;50.202;7.852;2022-09-13T10:54:11;0.40;;;0.40;;
29218;SDS011;16421;50.202;7.852;2022-09-13T10:59:20;0.32;;;0.32;;
29218;SDS011;16421;50.202;7.852;2022-09-13T11:09:47;0.63;;;0.25;;
29218;SDS011;16421;50.202;7.852;2022-09-13T11:14:59;0.52;;;0.40;;
29218;SDS011;16421;50.202;7.852;2022-09-13T11:20:18;0.28;;;0.25;;
29218;SDS011;16421;50.202;7.852;2022-09-13T11:25:35;0.20;;;0.20;;
29218;SDS011;16421;50.202;7.852;2022-09-13T11:36:09;1.02;;;0.20;;
29218;SDS011;16421;50.202;7.852;2022-09-13T11:41:24;0.13;;;0.13;;
29218;SDS011;16421;50.202;7.852;2022-09-13T11:46:36;0.70;;;0.57;;
29218;SDS011;16421;50.202;7.852;2022-09-13T11:51:48;0.60;;;0.50;;
29218;SDS011;16421;50.202;7.852;2022-09-13T11:57:01;1.00;;;0.43;;
29218;SDS011;16421;50.202;7.852;2022-09-13T12:02:11;0.50;;;0.30;;
29218;SDS011;16421;50.202;7.852;2022-09-13T12:07:24;0.30;;;0.30;;
29218;SDS011;16421;50.202;7.852;2022-09-13T12:12:35;0.45;;;0.17;;
29218;SDS011;16421;50.202;7.852;2022-09-13T12:17:40;0.28;;;0.28;;
29218;SDS011;16421;50.202;7.852;2022-09-13T12:22:47;1.92;;;0.60;;
29218;SDS011;16421;50.202;7.852;2022-09-13T12:27:54;1.02;;;0.40;;
29218;SDS011;16421;50.202;7.852;2022-09-13T12:33:04;0.60;;;0.40;;
29218;SDS011;16421;50.202;7.852;2022-09-13T12:38:18;0.95;;;0.52;;
29218;SDS011;16421;50.202;7.852;2022-09-13T12:43:47;0.68;;;0.50;;
29218;SDS011;16421;50.202;7.852;2022-09-13T12:49:15;0.90;;;0.60;;
29218;SDS011;16421;50.202;7.852;2022-09-13T12:54:37;0.55;;;0.40;;
29218;SDS011;16421;50.202;7.852;2022-09-13T13:05:23;0.75;;;0.30;;
29218;SDS011;16421;50.202;7.852;2022-09-13T13:10:32;1.02;;;0.25;;
29218;SDS011;16421;50.202;7.852;2022-09-13T13:15:58;1.25;;;0.40;;
29218;SDS011;16421;50.202;7.852;2022-09-13T13:21:05;0.75;;;0.30;;
29218;SDS011;16421;50.202;7.852;2022-09-13T13:26:46;0.47;;;0.30;;
29218;SDS011;16421;50.202;7.852;2022-09-13T13:32:09;0.40;;;0.30;;
29218;SDS011;16421;50.202;7.852;2022-09-13T13:42:45;0.93;;;0.30;;
29218;SDS011;16421;50.202;7.852;2022-09-13T13:47:53;0.20;;;0.15;;
29218;SDS011;16421;50.202;7.852;2022-09-13T13:53:16;0.30;;;0.22;;
29218;SDS011;16421;50.202;7.852;2022-09-13T13:58:26;0.93;;;0.25;;
29218;SDS011;16421;50.202;7.852;2022-09-13T14:09:41;1.25;;;0.40;;
29218;SDS011;16421;50.202;7.852;2022-09-13T14:14:57;0.57;;;0.20;;
29218;SDS011;16421;50.202;7.852;2022-09-13T14:20:08;0.75;;;0.20;;
29218;SDS011;16421;50.202;7.852;2022-09-13T14:25:17;0.95;;;0.28;;
29218;SDS011;16421;50.202;7.852;2022-09-13T14:30:28;0.57;;;0.52;;
29218;SDS011;16421;50.202;7.852;2022-09-13T14:35:35;1.10;;;0.40;;
29218;SDS011;16421;50.202;7.852;2022-09-13T14:40:40;0.93;;;0.50;;
29218;SDS011;16421;50.202;7.852;2022-09-13T14:45:51;2.92;;;0.60;;
29218;SDS011;16421;50.202;7.852;2022-09-13T14:50:59;0.43;;;0.40;;
29218;SDS011;16421;50.202;7.852;2022-09-13T14:56:06;0.40;;;0.35;;
29218;SDS011;16421;50.202;7.852;2022-09-13T15:01:15;0.50;;;0.22;;
29218;SDS011;16421;50.202;7.852;2022-09-13T15:06:23;0.75;;;0.28;;
29218;SDS011;16421;50.202;7.852;2022-09-13T15:11:30;0.45;;;0.30;;
29218;SDS011;16421;50.202;7.852;2022-09-13T15:16:46;0.25;;;0.20;;
29218;SDS011;16421;50.202;7.852;2022-09-13T15:27:03;0.30;;;0.10;;
29218;SDS011;16421;50.202;7.852;2022-09-13T15:32:19;0.30;;;0.30;;
29218;SDS011;16421;50.202;7.852;2022-09-13T15:42:34;0.20;;;0.20;;
29218;SDS011;16421;50.202;7.852;2022-09-13T15:47:39;0.40;;;0.30;;
29218;SDS011;16421;50.202;7.852;2022-09-13T15:52:42;0.98;;;0.20;;
29218;SDS011;16421;50.202;7.852;2022-09-13T15:57:46;3.10;;;0.43;;
29218;SDS011;16421;50.202;7.852;2022-09-13T16:02:51;1.15;;;0.28;;
29218;SDS011;16421;50.202;7.852;2022-09-13T16:07:55;0.65;;;0.20;;
29218;SDS011;16421;50.202;7.852;2022-09-13T16:12:59;0.65;;;0.40;;
29218;SDS011;16421;50.202;7.852;2022-09-13T16:18:03;0.30;;;0.30;;
29218;SDS011;16421;50.202;7.852;2022-09-13T16:23:07;1.23;;;0.30;;
29218;SDS011;16421;50.202;7.852;2022-09-13T16:28:11;0.55;;;0.20;;
29218;SDS011;16421;50.202;7.852;2022-09-13T16:33:20;0.50;;;0.20;;
29218;SDS011;16421;50.202;7.852;2022-09-13T16:38:23;1.00;;;0.40;;
29218;SDS011;16421;50.202;7.852;2022-09-13T16:43:27;1.58;;;0.47;;
29218;SDS011;16421;50.202;7.852;2022-09-13T16:48:31;0.30;;;0.30;;
29218;SDS011;16421;50.202;7.852;2022-09-13T16:53:35;0.80;;;0.30;;
29218;SDS011;16421;50.202;7.852;2022-09-13T16:58:42;0.82;;;0.40;;
29218;SDS011;16421;50.202;7.852;2022-09-13T17:03:48;0.50;;;0.50;;
29218;SDS011;16421;50.202;7.852;2022-09-13T17:08:55;2.83;;;0.52;;
29218;SDS011;16421;50.202;7.852;2022-09-13T17:14:01;2.00;;;0.43;;
29218;SDS011;16421;50.202;7.852;2022-09-13T17:19:10;1.17;;;0.30;;
29218;SDS011;16421;50.202;7.852;2022-09-13T17:24:15;2.72;;;0.43;;
29218;SDS011;16421;50.202;7.852;2022-09-13T17:29:19;1.33;;;0.43;;
29218;SDS011;16421;50.202;7.852;2022-09-13T17:34:24;3.33;;;0.40;;
29218;SDS011;16421;50.202;7.852;2022-09-13T17:39:28;2.05;;;1.40;;
29218;SDS011;16421;50.202;7.852;2022-09-13T17:44:32;1.60;;;1.00;;
29218;SDS011;16421;50.202;7.852;2022-09-13T17:49:37;1.20;;;0.93;;
29218;SDS011;16421;50.202;7.852;2022-09-13T17:54:41;0.43;;;0.37;;
29218;SDS011;16421;50.202;7.852;2022-09-13T17:59:46;1.90;;;0.50;;
29218;SDS011;16421;50.202;7.852;2022-09-13T18:04:53;0.63;;;0.43;;
29218;SDS011;16421;50.202;7.852;2022-09-13T18:09:57;0.82;;;0.40;;
29218;SDS011;16421;50.202;7.852;2022-09-13T18:15:00;0.73;;;0.50;;
29218;SDS011;16421;50.202;7.852;2022-09-13T18:20:06;1.08;;;0.40;;
29218;SDS011;16421;50.202;7.852;2022-09-13T18:25:10;0.50;;;0.47;;
29218;SDS011;16421;50.202;7.852;2022-09-13T18:30:13;1.33;;;0.47;;
29218;SDS011;16421;50.202;7.852;2022-09-13T18:35:18;1.08;;;0.85;;
29218;SDS011;16421;50.202;7.852;2022-09-13T18:40:21;0.60;;;0.40;;
29218;SDS011;16421;50.202;7.852;2022-09-13T18:45:24;0.52;;;0.40;;
29218;SDS011;16421;50.202;7.852;2022-09-13T18:50:29;1.55;;;0.60;;
29218;SDS011;16421;50.202;7.852;2022-09-13T18:55:35;0.77;;;0.43;;
29218;SDS011;16421;50.202;7.852;2022-09-13T19:00:40;0.32;;;0.30;;
29218;SDS011;16421;50.202;7.852;2022-09-13T19:05:45;0.77;;;0.40;;
29218;SDS011;16421;50.202;7.852;2022-09-13T19:10:48;0.40;;;0.40;;
29218;SDS011;16421;50.202;7.852;2022-09-13T19:15:52;1.50;;;0.98;;
29218;SDS011;16421;50.202;7.852;2022-09-13T19:21:04;0.98;;;0.73;;
29218;SDS011;16421;50.202;7.852;2022-09-13T19:26:09;1.23;;;0.70;;
29218;SDS011;16421;50.202;7.852;2022-09-13T19:31:13;1.73;;;0.60;;
29218;SDS011;16421;50.202;7.852;2022-09-13T19:36:19;1.25;;;0.60;;
29218;SDS011;16421;50.202;7.852;2022-09-13T19:41:24;0.30;;;0.30;;
29218;SDS011;16421;50.202;7.852;2022-09-13T19:51:35;2.45;;;0.50;;
29218;SDS011;16421;50.202;7.852;2022-09-13T19:56:41;1.33;;;0.60;;
29218;SDS011;16421;50.202;7.852;2022-09-13T20:01:45;1.27;;;0.40;;
29218;SDS011;16421;50.202;7.852;2022-09-13T20:06:50;1.17;;;0.80;;
29218;SDS011;16421;50.202;7.852;2022-09-13T20:11:54;1.67;;;0.70;;
29218;SDS011;16421;50.202;7.852;2022-09-13T20:17:00;1.10;;;0.50;;
29218;SDS011;16421;50.202;7.852;2022-09-13T20:22:05;0.85;;;0.52;;
29218;SDS011;16421;50.202;7.852;2022-09-13T20:27:09;1.17;;;0.50;;
29218;SDS011;16421;50.202;7.852;2022-09-13T20:32:16;1.02;;;0.43;;
29218;SDS011;16421;50.202;7.852;2022-09-13T20:37:23;0.73;;;0.50;;
29218;SDS011;16421;50.202;7.852;2022-09-13T20:42:27;2.05;;;0.50;;
29218;SDS011;16421;50.202;7.852;2022-09-13T20:47:30;2.72;;;0.70;;
29218;SDS011;16421;50.202;7.852;2022-09-13T20:52:36;1.15;;;0.57;;
29218;SDS011;16421;50.202;7.852;2022-09-13T20:57:40;0.82;;;0.60;;
29218;SDS011;16421;50.202;7.852;2022-09-13T21:02:44;1.02;;;0.60;;
29218;SDS011;16421;50.202;7.852;2022-09-13T21:07:52;0.90;;;0.50;;
29218;SDS011;16421;50.202;7.852;2022-09-13T21:13:12;0.83;;;0.60;;
29218;SDS011;16421;50.202;7.852;2022-09-13T21:18:17;0.57;;;0.53;;
29218;SDS011;16421;50.202;7.852;2022-09-13T21:23:22;0.60;;;0.50;;
29218;SDS011;16421;50.202;7.852;2022-09-13T21:28:26;0.53;;;0.43;;
29218;SDS011;16421;50.202;7.852;2022-09-13T21:33:33;0.70;;;0.50;;
29218;SDS011;16421;50.202;7.852;2022-09-13T21:38:38;0.60;;;0.40;;
29218;SDS011;16421;50.202;7.852;2022-09-13T21:43:42;0.80;;;0.50;;
29218;SDS011;16421;50.202;7.852;2022-09-13T21:48:47;0.80;;;0.40;;
29218;SDS011;16421;50.202;7.852;2022-09-13T21:59:00;0.70;;;0.43;;
29218;SDS011;16421;50.202;7.852;2022-09-13T22:04:04;1.85;;;0.60;;
29218;SDS011;16421;50.202;7.852;2022-09-13T22:09:10;0.47;;;0.43;;
29218;SDS011;16421;50.202;7.852;2022-09-13T22:14:16;1.33;;;0.40;;
29218;SDS011;16421;50.202;7.852;2022-09-13T22:19:22;1.42;;;0.52;;
29218;SDS011;16421;50.202;7.852;2022-09-13T22:24:29;0.65;;;0.65;;
29218;SDS011;16421;50.202;7.852;2022-09-13T22:29:38;1.35;;;0.80;;
29218;SDS011;16421;50.202;7.852;2022-09-13T22:34:41;0.45;;;0.45;;
29218;SDS011;16421;50.202;7.852;2022-09-13T22:39:46;1.75;;;0.57;;
29218;SDS011;16421;50.202;7.852;2022-09-13T22:44:49;0.63;;;0.50;;
29218;SDS011;16421;50.202;7.852;2022-09-13T22:49:52;1.77;;;0.40;;
29218;SDS011;16421;50.202;7.852;2022-09-13T22:54:57;1.52;;;0.50;;
29218;SDS011;16421;50.202;7.852;2022-09-13T23:00:01;0.40;;;0.40;;
29218;SDS011;16421;50.202;7.852;2022-09-13T23:05:05;1.23;;;0.40;;
29218;SDS011;16421;50.202;7.852;2022-09-13T23:10:10;0.68;;;0.50;;
29218;SDS011;16421;50.202;7.852;2022-09-13T23:15:13;0.80;;;0.60;;
29218;SDS011;16421;50.202;7.852;2022-09-13T23:20:16;0.75;;;0.50;;
29218;SDS011;16421;50.202;7.852;2022-09-13T23:25:21;1.60;;;0.40;;
29218;SDS011;16421;50.202;7.852;2022-09-13T23:30:25;0.68;;;0.40;;
29218;SDS011;16421;50.202;7.852;2022-09-13T23:35:28;1.70;;;0.63;;
29218;SDS011;16421;50.202;7.852;2022-09-13T23:40:32;1.08;;;0.57;;
29218;SDS011;16421;50.202;7.852;2022-09-13T23:45:36;1.85;;;0.63;;
29218;SDS011;16421;50.202;7.852;2022-09-13T23:50:39;0.98;;;0.50;;
29218;SDS011;16421;50.202;7.852;2022-09-13T23:55:44;0.35;;;0.35;;
